sensor_id;sensor_type;location;lat;lon;timestamp;P1;durP1;ratioP1;P2;durP2;ratioP2
56419;SDS011;42323;52.170;7.538;2023-04-16T00:01:23;38.30;;;15.63;;
56419;SDS011;42323;52.170;7.538;2023-04-16T00:03:50;47.17;;;17.17;;
56419;SDS011;42323;52.170;7.538;2023-04-16T00:06:17;40.72;;;16.10;;
56419;SDS011;42323;52.170;7.538;2023-04-16T00:08:44;37.50;;;15.85;;
56419;SDS011;42323;52.170;7.538;2023-04-16T00:11:10;32.45;;;15.63;;
56419;SDS011;42323;52.170;7.538;2023-04-16T00:13:37;41.75;;;15.77;;
56419;SDS011;42323;52.170;7.538;2023-04-16T00:16:04;41.60;;;16.15;;
56419;SDS011;42323;52.170;7.538;2023-04-16T00:18:30;39.13;;;16.83;;
56419;SDS011;42323;52.170;7.538;2023-04-16T00:20:57;37.33;;;15.70;;
56419;SDS011;42323;52.170;7.538;2023-04-16T00:23:24;38.63;;;15.38;;
56419;SDS011;42323;52.170;7.538;2023-04-16T00:25:51;39.90;;;17.00;;
56419;SDS011;42323;52.170;7.538;2023-04-16T00:28:18;33.60;;;14.45;;
56419;SDS011;42323;52.170;7.538;2023-04-16T00:30:45;37.63;;;15.18;;
56419;SDS011;42323;52.170;7.538;2023-04-16T00:33:11;37.50;;;16.27;;
56419;SDS011;42323;52.170;7.538;2023-04-16T00:35:38;39.25;;;17.02;;
56419;SDS011;42323;52.170;7.538;2023-04-16T00:38:04;39.92;;;15.95;;
56419;SDS011;42323;52.170;7.538;2023-04-16T00:40:31;34.88;;;15.98;;
56419;SDS011;42323;52.170;7.538;2023-04-16T00:42:57;39.22;;;16.80;;
56419;SDS011;42323;52.170;7.538;2023-04-16T00:45:24;36.25;;;15.20;;
56419;SDS011;42323;52.170;7.538;2023-04-16T00:47:50;37.83;;;16.98;;
56419;SDS011;42323;52.170;7.538;2023-04-16T00:50:17;35.13;;;15.75;;
56419;SDS011;42323;52.170;7.538;2023-04-16T00:52:45;36.67;;;15.48;;
56419;SDS011;42323;52.170;7.538;2023-04-16T00:55:12;35.05;;;15.80;;
56419;SDS011;42323;52.170;7.538;2023-04-16T00:57:44;37.90;;;15.55;;
56419;SDS011;42323;52.170;7.538;2023-04-16T01:00:11;36.08;;;16.27;;
56419;SDS011;42323;52.170;7.538;2023-04-16T01:02:38;38.72;;;16.85;;
56419;SDS011;42323;52.170;7.538;2023-04-16T01:05:05;39.90;;;16.52;;
56419;SDS011;42323;52.170;7.538;2023-04-16T01:07:31;37.58;;;16.30;;
56419;SDS011;42323;52.170;7.538;2023-04-16T01:09:58;35.03;;;16.50;;
56419;SDS011;42323;52.170;7.538;2023-04-16T01:12:24;38.30;;;16.10;;
56419;SDS011;42323;52.170;7.538;2023-04-16T01:14:51;31.92;;;15.27;;
56419;SDS011;42323;52.170;7.538;2023-04-16T01:17:18;39.58;;;15.60;;
56419;SDS011;42323;52.170;7.538;2023-04-16T01:19:44;42.05;;;17.20;;
56419;SDS011;42323;52.170;7.538;2023-04-16T01:22:13;38.92;;;16.08;;
56419;SDS011;42323;52.170;7.538;2023-04-16T01:24:40;37.92;;;16.00;;
56419;SDS011;42323;52.170;7.538;2023-04-16T01:27:06;36.30;;;16.83;;
56419;SDS011;42323;52.170;7.538;2023-04-16T01:29:33;38.75;;;17.48;;
56419;SDS011;42323;52.170;7.538;2023-04-16T01:32:00;37.17;;;16.55;;
56419;SDS011;42323;52.170;7.538;2023-04-16T01:34:26;39.60;;;15.73;;
56419;SDS011;42323;52.170;7.538;2023-04-16T01:36:53;35.50;;;16.92;;
56419;SDS011;42323;52.170;7.538;2023-04-16T01:39:19;38.72;;;17.48;;
56419;SDS011;42323;52.170;7.538;2023-04-16T01:41:46;43.60;;;16.33;;
56419;SDS011;42323;52.170;7.538;2023-04-16T01:44:12;45.75;;;17.42;;
56419;SDS011;42323;52.170;7.538;2023-04-16T01:46:39;47.08;;;17.02;;
56419;SDS011;42323;52.170;7.538;2023-04-16T01:49:05;37.55;;;17.45;;
56419;SDS011;42323;52.170;7.538;2023-04-16T01:51:32;39.15;;;16.90;;
56419;SDS011;42323;52.170;7.538;2023-04-16T01:53:59;36.70;;;17.30;;
56419;SDS011;42323;52.170;7.538;2023-04-16T01:56:26;35.25;;;17.08;;
56419;SDS011;42323;52.170;7.538;2023-04-16T01:58:52;39.40;;;17.08;;
56419;SDS011;42323;52.170;7.538;2023-04-16T02:01:19;38.38;;;15.98;;
56419;SDS011;42323;52.170;7.538;2023-04-16T02:03:46;38.90;;;16.83;;
56419;SDS011;42323;52.170;7.538;2023-04-16T02:06:13;37.08;;;16.63;;
56419;SDS011;42323;52.170;7.538;2023-04-16T02:08:39;34.38;;;17.90;;
56419;SDS011;42323;52.170;7.538;2023-04-16T02:11:06;41.45;;;18.50;;
56419;SDS011;42323;52.170;7.538;2023-04-16T02:13:33;38.47;;;17.63;;
56419;SDS011;42323;52.170;7.538;2023-04-16T02:16:00;35.83;;;17.00;;
56419;SDS011;42323;52.170;7.538;2023-04-16T02:18:27;35.45;;;16.80;;
56419;SDS011;42323;52.170;7.538;2023-04-16T02:20:54;36.47;;;17.83;;
56419;SDS011;42323;52.170;7.538;2023-04-16T02:23:23;38.47;;;17.55;;
56419;SDS011;42323;52.170;7.538;2023-04-16T02:25:50;38.88;;;17.20;;
56419;SDS011;42323;52.170;7.538;2023-04-16T02:28:16;34.22;;;16.25;;
56419;SDS011;42323;52.170;7.538;2023-04-16T02:30:43;35.42;;;16.45;;
56419;SDS011;42323;52.170;7.538;2023-04-16T02:33:10;38.83;;;16.50;;
56419;SDS011;42323;52.170;7.538;2023-04-16T02:35:37;36.60;;;17.70;;
56419;SDS011;42323;52.170;7.538;2023-04-16T02:38:04;34.05;;;17.23;;
56419;SDS011;42323;52.170;7.538;2023-04-16T02:40:31;36.88;;;17.77;;
56419;SDS011;42323;52.170;7.538;2023-04-16T02:42:58;36.55;;;16.30;;
56419;SDS011;42323;52.170;7.538;2023-04-16T02:45:24;36.00;;;18.75;;
56419;SDS011;42323;52.170;7.538;2023-04-16T02:47:51;38.08;;;17.88;;
56419;SDS011;42323;52.170;7.538;2023-04-16T02:50:17;33.67;;;17.25;;
56419;SDS011;42323;52.170;7.538;2023-04-16T02:52:44;31.75;;;15.43;;
56419;SDS011;42323;52.170;7.538;2023-04-16T02:55:10;35.40;;;15.18;;
56419;SDS011;42323;52.170;7.538;2023-04-16T02:57:37;44.63;;;18.63;;
56419;SDS011;42323;52.170;7.538;2023-04-16T03:00:04;42.00;;;18.05;;
56419;SDS011;42323;52.170;7.538;2023-04-16T03:02:31;38.90;;;17.33;;
56419;SDS011;42323;52.170;7.538;2023-04-16T03:04:58;44.92;;;18.50;;
56419;SDS011;42323;52.170;7.538;2023-04-16T03:07:25;36.92;;;17.10;;
56419;SDS011;42323;52.170;7.538;2023-04-16T03:09:51;41.72;;;18.20;;
56419;SDS011;42323;52.170;7.538;2023-04-16T03:12:18;36.67;;;16.63;;
56419;SDS011;42323;52.170;7.538;2023-04-16T03:14:44;40.80;;;18.70;;
56419;SDS011;42323;52.170;7.538;2023-04-16T03:17:11;34.92;;;17.95;;
56419;SDS011;42323;52.170;7.538;2023-04-16T03:19:37;40.08;;;18.02;;
56419;SDS011;42323;52.170;7.538;2023-04-16T03:22:04;35.80;;;17.67;;
56419;SDS011;42323;52.170;7.538;2023-04-16T03:24:30;45.08;;;18.83;;
56419;SDS011;42323;52.170;7.538;2023-04-16T03:26:57;37.25;;;17.73;;
56419;SDS011;42323;52.170;7.538;2023-04-16T03:29:24;36.10;;;18.50;;
56419;SDS011;42323;52.170;7.538;2023-04-16T03:31:51;42.05;;;19.92;;
56419;SDS011;42323;52.170;7.538;2023-04-16T03:34:42;38.58;;;18.05;;
56419;SDS011;42323;52.170;7.538;2023-04-16T03:37:09;44.88;;;18.33;;
56419;SDS011;42323;52.170;7.538;2023-04-16T03:39:37;36.80;;;17.38;;
56419;SDS011;42323;52.170;7.538;2023-04-16T03:42:03;37.55;;;17.83;;
56419;SDS011;42323;52.170;7.538;2023-04-16T03:44:30;34.97;;;16.67;;
56419;SDS011;42323;52.170;7.538;2023-04-16T03:46:56;33.90;;;17.55;;
56419;SDS011;42323;52.170;7.538;2023-04-16T03:49:23;33.42;;;17.50;;
56419;SDS011;42323;52.170;7.538;2023-04-16T03:51:49;38.53;;;18.23;;
56419;SDS011;42323;52.170;7.538;2023-04-16T03:54:16;36.95;;;17.60;;
56419;SDS011;42323;52.170;7.538;2023-04-16T03:56:45;34.78;;;17.02;;
56419;SDS011;42323;52.170;7.538;2023-04-16T03:59:12;37.17;;;17.95;;
56419;SDS011;42323;52.170;7.538;2023-04-16T04:01:38;36.95;;;17.65;;
56419;SDS011;42323;52.170;7.538;2023-04-16T04:04:05;36.75;;;18.00;;
56419;SDS011;42323;52.170;7.538;2023-04-16T04:06:32;36.47;;;17.20;;
56419;SDS011;42323;52.170;7.538;2023-04-16T04:08:59;35.70;;;17.27;;
56419;SDS011;42323;52.170;7.538;2023-04-16T04:11:28;31.58;;;17.05;;
56419;SDS011;42323;52.170;7.538;2023-04-16T04:13:55;35.33;;;18.60;;
56419;SDS011;42323;52.170;7.538;2023-04-16T04:16:22;39.20;;;18.60;;
56419;SDS011;42323;52.170;7.538;2023-04-16T04:18:48;34.22;;;17.73;;
56419;SDS011;42323;52.170;7.538;2023-04-16T04:21:15;31.02;;;16.15;;
56419;SDS011;42323;52.170;7.538;2023-04-16T04:23:41;35.28;;;17.38;;
56419;SDS011;42323;52.170;7.538;2023-04-16T04:26:08;32.50;;;17.33;;
56419;SDS011;42323;52.170;7.538;2023-04-16T04:28:35;38.00;;;17.83;;
56419;SDS011;42323;52.170;7.538;2023-04-16T04:31:01;31.98;;;17.08;;
56419;SDS011;42323;52.170;7.538;2023-04-16T04:33:28;33.42;;;17.30;;
56419;SDS011;42323;52.170;7.538;2023-04-16T04:35:54;35.30;;;17.95;;
56419;SDS011;42323;52.170;7.538;2023-04-16T04:38:21;33.75;;;18.27;;
56419;SDS011;42323;52.170;7.538;2023-04-16T04:40:50;35.00;;;18.17;;
56419;SDS011;42323;52.170;7.538;2023-04-16T04:43:18;38.90;;;17.33;;
56419;SDS011;42323;52.170;7.538;2023-04-16T04:45:45;32.35;;;16.83;;
56419;SDS011;42323;52.170;7.538;2023-04-16T04:48:12;36.10;;;17.02;;
56419;SDS011;42323;52.170;7.538;2023-04-16T04:50:38;33.88;;;17.92;;
56419;SDS011;42323;52.170;7.538;2023-04-16T04:53:06;36.83;;;17.60;;
56419;SDS011;42323;52.170;7.538;2023-04-16T04:55:36;31.45;;;16.42;;
56419;SDS011;42323;52.170;7.538;2023-04-16T04:58:06;32.72;;;17.35;;
56419;SDS011;42323;52.170;7.538;2023-04-16T05:00:33;39.38;;;17.65;;
56419;SDS011;42323;52.170;7.538;2023-04-16T05:03:02;33.85;;;18.85;;
56419;SDS011;42323;52.170;7.538;2023-04-16T05:05:29;34.40;;;17.92;;
56419;SDS011;42323;52.170;7.538;2023-04-16T05:07:56;37.60;;;19.10;;
56419;SDS011;42323;52.170;7.538;2023-04-16T05:10:22;37.50;;;17.65;;
56419;SDS011;42323;52.170;7.538;2023-04-16T05:12:49;34.42;;;17.70;;
56419;SDS011;42323;52.170;7.538;2023-04-16T05:15:15;36.70;;;17.75;;
56419;SDS011;42323;52.170;7.538;2023-04-16T05:17:42;35.90;;;18.33;;
56419;SDS011;42323;52.170;7.538;2023-04-16T05:20:09;30.58;;;16.08;;
56419;SDS011;42323;52.170;7.538;2023-04-16T05:22:35;35.38;;;17.20;;
56419;SDS011;42323;52.170;7.538;2023-04-16T05:25:02;37.88;;;18.42;;
56419;SDS011;42323;52.170;7.538;2023-04-16T05:27:29;32.63;;;18.02;;
56419;SDS011;42323;52.170;7.538;2023-04-16T05:29:55;38.03;;;19.13;;
56419;SDS011;42323;52.170;7.538;2023-04-16T05:32:24;33.13;;;17.85;;
56419;SDS011;42323;52.170;7.538;2023-04-16T05:34:51;35.20;;;17.15;;
56419;SDS011;42323;52.170;7.538;2023-04-16T05:37:17;32.30;;;17.50;;
56419;SDS011;42323;52.170;7.538;2023-04-16T05:39:44;33.40;;;17.55;;
56419;SDS011;42323;52.170;7.538;2023-04-16T05:42:11;38.05;;;18.30;;
56419;SDS011;42323;52.170;7.538;2023-04-16T05:44:37;33.75;;;18.20;;
56419;SDS011;42323;52.170;7.538;2023-04-16T05:47:03;33.83;;;17.45;;
56419;SDS011;42323;52.170;7.538;2023-04-16T05:49:32;35.13;;;18.77;;
56419;SDS011;42323;52.170;7.538;2023-04-16T05:51:58;32.15;;;17.45;;
56419;SDS011;42323;52.170;7.538;2023-04-16T05:54:25;38.63;;;18.02;;
56419;SDS011;42323;52.170;7.538;2023-04-16T05:56:52;34.50;;;17.27;;
56419;SDS011;42323;52.170;7.538;2023-04-16T05:59:18;34.42;;;17.70;;
56419;SDS011;42323;52.170;7.538;2023-04-16T06:01:45;33.58;;;17.60;;
56419;SDS011;42323;52.170;7.538;2023-04-16T06:04:12;37.33;;;17.65;;
56419;SDS011;42323;52.170;7.538;2023-04-16T06:06:39;32.67;;;17.95;;
56419;SDS011;42323;52.170;7.538;2023-04-16T06:09:05;32.92;;;18.23;;
56419;SDS011;42323;52.170;7.538;2023-04-16T06:11:36;32.47;;;17.40;;
56419;SDS011;42323;52.170;7.538;2023-04-16T06:14:02;39.50;;;19.17;;
56419;SDS011;42323;52.170;7.538;2023-04-16T06:16:29;30.20;;;15.85;;
56419;SDS011;42323;52.170;7.538;2023-04-16T06:18:55;36.42;;;17.80;;
56419;SDS011;42323;52.170;7.538;2023-04-16T06:21:22;33.58;;;17.77;;
56419;SDS011;42323;52.170;7.538;2023-04-16T06:23:48;34.00;;;17.55;;
56419;SDS011;42323;52.170;7.538;2023-04-16T06:26:16;32.78;;;17.60;;
56419;SDS011;42323;52.170;7.538;2023-04-16T06:28:43;33.47;;;17.42;;
56419;SDS011;42323;52.170;7.538;2023-04-16T06:31:12;34.67;;;17.27;;
56419;SDS011;42323;52.170;7.538;2023-04-16T06:33:38;35.78;;;16.15;;
56419;SDS011;42323;52.170;7.538;2023-04-16T06:36:05;33.58;;;16.40;;
56419;SDS011;42323;52.170;7.538;2023-04-16T06:38:31;35.45;;;17.38;;
56419;SDS011;42323;52.170;7.538;2023-04-16T06:40:58;32.03;;;16.85;;
56419;SDS011;42323;52.170;7.538;2023-04-16T06:43:24;36.00;;;18.13;;
56419;SDS011;42323;52.170;7.538;2023-04-16T06:45:51;29.65;;;17.65;;
56419;SDS011;42323;52.170;7.538;2023-04-16T06:48:17;29.25;;;16.60;;
56419;SDS011;42323;52.170;7.538;2023-04-16T06:50:44;34.00;;;17.88;;
56419;SDS011;42323;52.170;7.538;2023-04-16T06:53:10;27.73;;;15.85;;
56419;SDS011;42323;52.170;7.538;2023-04-16T06:55:37;33.85;;;17.67;;
56419;SDS011;42323;52.170;7.538;2023-04-16T06:58:03;30.08;;;16.30;;
56419;SDS011;42323;52.170;7.538;2023-04-16T07:00:30;33.33;;;17.55;;
56419;SDS011;42323;52.170;7.538;2023-04-16T07:02:56;33.38;;;16.60;;
56419;SDS011;42323;52.170;7.538;2023-04-16T07:05:24;32.10;;;18.35;;
56419;SDS011;42323;52.170;7.538;2023-04-16T07:07:50;31.17;;;16.10;;
56419;SDS011;42323;52.170;7.538;2023-04-16T07:10:17;27.25;;;16.20;;
56419;SDS011;42323;52.170;7.538;2023-04-16T07:12:43;33.97;;;17.08;;
56419;SDS011;42323;52.170;7.538;2023-04-16T07:15:10;32.70;;;16.67;;
56419;SDS011;42323;52.170;7.538;2023-04-16T07:17:36;27.52;;;16.30;;
56419;SDS011;42323;52.170;7.538;2023-04-16T07:20:03;32.30;;;16.45;;
56419;SDS011;42323;52.170;7.538;2023-04-16T07:22:30;29.83;;;16.00;;
56419;SDS011;42323;52.170;7.538;2023-04-16T07:24:57;30.00;;;16.27;;
56419;SDS011;42323;52.170;7.538;2023-04-16T07:27:23;31.13;;;16.70;;
56419;SDS011;42323;52.170;7.538;2023-04-16T07:29:50;31.38;;;16.40;;
56419;SDS011;42323;52.170;7.538;2023-04-16T07:32:16;28.00;;;15.80;;
56419;SDS011;42323;52.170;7.538;2023-04-16T07:34:43;29.00;;;16.65;;
56419;SDS011;42323;52.170;7.538;2023-04-16T07:37:10;30.20;;;17.00;;
56419;SDS011;42323;52.170;7.538;2023-04-16T07:39:36;30.80;;;16.48;;
56419;SDS011;42323;52.170;7.538;2023-04-16T07:42:02;28.85;;;16.52;;
56419;SDS011;42323;52.170;7.538;2023-04-16T07:44:29;30.23;;;16.73;;
56419;SDS011;42323;52.170;7.538;2023-04-16T07:46:55;29.83;;;15.75;;
56419;SDS011;42323;52.170;7.538;2023-04-16T07:49:22;28.65;;;15.48;;
56419;SDS011;42323;52.170;7.538;2023-04-16T07:51:48;27.58;;;15.73;;
56419;SDS011;42323;52.170;7.538;2023-04-16T07:54:15;25.65;;;14.98;;
56419;SDS011;42323;52.170;7.538;2023-04-16T07:56:42;29.70;;;17.27;;
56419;SDS011;42323;52.170;7.538;2023-04-16T07:59:12;28.83;;;16.50;;
56419;SDS011;42323;52.170;7.538;2023-04-16T08:01:48;29.33;;;16.15;;
56419;SDS011;42323;52.170;7.538;2023-04-16T08:04:15;25.67;;;15.07;;
56419;SDS011;42323;52.170;7.538;2023-04-16T08:06:48;27.65;;;15.27;;
56419;SDS011;42323;52.170;7.538;2023-04-16T08:09:15;25.23;;;15.68;;
56419;SDS011;42323;52.170;7.538;2023-04-16T08:11:42;28.30;;;15.55;;
56419;SDS011;42323;52.170;7.538;2023-04-16T08:14:09;27.25;;;15.45;;
56419;SDS011;42323;52.170;7.538;2023-04-16T08:16:35;26.15;;;15.75;;
56419;SDS011;42323;52.170;7.538;2023-04-16T08:19:02;28.70;;;15.75;;
56419;SDS011;42323;52.170;7.538;2023-04-16T08:21:28;27.80;;;15.75;;
56419;SDS011;42323;52.170;7.538;2023-04-16T08:23:58;27.42;;;14.82;;
56419;SDS011;42323;52.170;7.538;2023-04-16T08:26:27;27.33;;;15.52;;
56419;SDS011;42323;52.170;7.538;2023-04-16T08:28:53;28.02;;;15.55;;
56419;SDS011;42323;52.170;7.538;2023-04-16T08:31:20;26.40;;;15.52;;
56419;SDS011;42323;52.170;7.538;2023-04-16T08:33:46;25.48;;;15.25;;
56419;SDS011;42323;52.170;7.538;2023-04-16T08:36:13;23.98;;;14.35;;
56419;SDS011;42323;52.170;7.538;2023-04-16T08:38:39;25.88;;;15.48;;
56419;SDS011;42323;52.170;7.538;2023-04-16T08:41:06;23.58;;;13.95;;
56419;SDS011;42323;52.170;7.538;2023-04-16T08:43:38;27.63;;;15.05;;
56419;SDS011;42323;52.170;7.538;2023-04-16T08:46:11;23.92;;;14.65;;
56419;SDS011;42323;52.170;7.538;2023-04-16T08:48:43;24.70;;;13.45;;
56419;SDS011;42323;52.170;7.538;2023-04-16T08:51:14;24.75;;;14.05;;
56419;SDS011;42323;52.170;7.538;2023-04-16T08:53:48;24.52;;;14.65;;
56419;SDS011;42323;52.170;7.538;2023-04-16T08:56:22;24.52;;;13.75;;
56419;SDS011;42323;52.170;7.538;2023-04-16T08:58:49;26.08;;;14.15;;
56419;SDS011;42323;52.170;7.538;2023-04-16T09:01:17;22.05;;;13.48;;
56419;SDS011;42323;52.170;7.538;2023-04-16T09:03:47;23.35;;;14.27;;
56419;SDS011;42323;52.170;7.538;2023-04-16T09:06:14;22.48;;;13.32;;
56419;SDS011;42323;52.170;7.538;2023-04-16T09:08:44;22.13;;;13.52;;
56419;SDS011;42323;52.170;7.538;2023-04-16T09:11:16;22.20;;;13.30;;
56419;SDS011;42323;52.170;7.538;2023-04-16T09:13:45;19.05;;;12.35;;
56419;SDS011;42323;52.170;7.538;2023-04-16T09:16:12;17.55;;;11.43;;
56419;SDS011;42323;52.170;7.538;2023-04-16T09:18:40;18.77;;;11.25;;
56419;SDS011;42323;52.170;7.538;2023-04-16T09:21:08;21.20;;;12.60;;
56419;SDS011;42323;52.170;7.538;2023-04-16T09:23:36;17.27;;;11.48;;
56419;SDS011;42323;52.170;7.538;2023-04-16T09:26:04;18.52;;;11.48;;
56419;SDS011;42323;52.170;7.538;2023-04-16T09:28:40;17.15;;;11.02;;
56419;SDS011;42323;52.170;7.538;2023-04-16T09:31:15;18.05;;;11.48;;
56419;SDS011;42323;52.170;7.538;2023-04-16T09:34:02;19.27;;;12.13;;
56419;SDS011;42323;52.170;7.538;2023-04-16T09:36:32;18.15;;;11.57;;
56419;SDS011;42323;52.170;7.538;2023-04-16T09:39:00;18.60;;;11.88;;
56419;SDS011;42323;52.170;7.538;2023-04-16T09:41:27;17.90;;;11.55;;
56419;SDS011;42323;52.170;7.538;2023-04-16T09:43:55;18.38;;;12.82;;
56419;SDS011;42323;52.170;7.538;2023-04-16T09:46:30;18.77;;;11.50;;
56419;SDS011;42323;52.170;7.538;2023-04-16T09:49:15;17.13;;;11.35;;
56419;SDS011;42323;52.170;7.538;2023-04-16T09:51:45;17.60;;;11.55;;
56419;SDS011;42323;52.170;7.538;2023-04-16T09:54:18;17.40;;;10.77;;
56419;SDS011;42323;52.170;7.538;2023-04-16T09:56:45;19.00;;;11.80;;
56419;SDS011;42323;52.170;7.538;2023-04-16T09:59:18;17.33;;;11.45;;
56419;SDS011;42323;52.170;7.538;2023-04-16T10:01:46;16.65;;;12.00;;
56419;SDS011;42323;52.170;7.538;2023-04-16T10:04:15;15.77;;;10.85;;
56419;SDS011;42323;52.170;7.538;2023-04-16T10:06:42;16.83;;;10.50;;
56419;SDS011;42323;52.170;7.538;2023-04-16T10:09:09;17.35;;;10.30;;
56419;SDS011;42323;52.170;7.538;2023-04-16T10:11:36;17.25;;;10.85;;
56419;SDS011;42323;52.170;7.538;2023-04-16T10:14:02;15.82;;;10.98;;
56419;SDS011;42323;52.170;7.538;2023-04-16T10:16:31;15.52;;;11.35;;
56419;SDS011;42323;52.170;7.538;2023-04-16T10:18:59;15.80;;;10.45;;
56419;SDS011;42323;52.170;7.538;2023-04-16T10:21:26;16.90;;;11.15;;
56419;SDS011;42323;52.170;7.538;2023-04-16T10:23:59;15.50;;;10.40;;
56419;SDS011;42323;52.170;7.538;2023-04-16T10:26:25;14.27;;;9.50;;
56419;SDS011;42323;52.170;7.538;2023-04-16T10:28:54;15.35;;;9.85;;
56419;SDS011;42323;52.170;7.538;2023-04-16T10:31:21;16.52;;;10.60;;
56419;SDS011;42323;52.170;7.538;2023-04-16T10:33:48;13.63;;;9.57;;
56419;SDS011;42323;52.170;7.538;2023-04-16T10:36:15;13.68;;;9.45;;
56419;SDS011;42323;52.170;7.538;2023-04-16T10:38:52;13.48;;;8.77;;
56419;SDS011;42323;52.170;7.538;2023-04-16T10:41:24;13.27;;;9.90;;
56419;SDS011;42323;52.170;7.538;2023-04-16T10:44:02;15.55;;;9.63;;
56419;SDS011;42323;52.170;7.538;2023-04-16T10:46:32;15.82;;;10.02;;
56419;SDS011;42323;52.170;7.538;2023-04-16T10:49:02;15.80;;;9.95;;
56419;SDS011;42323;52.170;7.538;2023-04-16T10:51:39;13.38;;;9.57;;
56419;SDS011;42323;52.170;7.538;2023-04-16T10:56:39;14.73;;;9.55;;
56419;SDS011;42323;52.170;7.538;2023-04-16T10:59:06;13.35;;;10.30;;
56419;SDS011;42323;52.170;7.538;2023-04-16T11:01:38;14.40;;;8.77;;
56419;SDS011;42323;52.170;7.538;2023-04-16T11:06:59;14.18;;;8.85;;
56419;SDS011;42323;52.170;7.538;2023-04-16T11:15:14;12.07;;;9.30;;
56419;SDS011;42323;52.170;7.538;2023-04-16T11:17:42;13.90;;;9.50;;
56419;SDS011;42323;52.170;7.538;2023-04-16T11:20:18;12.38;;;8.45;;
56419;SDS011;42323;52.170;7.538;2023-04-16T11:22:49;12.68;;;8.40;;
56419;SDS011;42323;52.170;7.538;2023-04-16T11:25:26;12.65;;;9.20;;
56419;SDS011;42323;52.170;7.538;2023-04-16T11:27:59;14.73;;;9.18;;
56419;SDS011;42323;52.170;7.538;2023-04-16T11:30:28;14.18;;;9.05;;
56419;SDS011;42323;52.170;7.538;2023-04-16T11:32:56;12.27;;;8.27;;
56419;SDS011;42323;52.170;7.538;2023-04-16T11:35:23;14.35;;;9.02;;
56419;SDS011;42323;52.170;7.538;2023-04-16T11:37:54;13.23;;;8.98;;
56419;SDS011;42323;52.170;7.538;2023-04-16T11:40:21;15.23;;;9.25;;
56419;SDS011;42323;52.170;7.538;2023-04-16T11:42:47;15.57;;;10.75;;
56419;SDS011;42323;52.170;7.538;2023-04-16T11:45:14;14.85;;;9.85;;
56419;SDS011;42323;52.170;7.538;2023-04-16T11:47:41;13.85;;;9.68;;
56419;SDS011;42323;52.170;7.538;2023-04-16T11:52:51;14.23;;;9.07;;
56419;SDS011;42323;52.170;7.538;2023-04-16T11:55:18;14.05;;;10.05;;
56419;SDS011;42323;52.170;7.538;2023-04-16T11:57:45;14.85;;;8.40;;
56419;SDS011;42323;52.170;7.538;2023-04-16T12:00:12;15.00;;;9.70;;
56419;SDS011;42323;52.170;7.538;2023-04-16T12:02:40;14.15;;;9.45;;
56419;SDS011;42323;52.170;7.538;2023-04-16T12:08:01;12.27;;;8.90;;
56419;SDS011;42323;52.170;7.538;2023-04-16T12:10:33;15.07;;;8.95;;
56419;SDS011;42323;52.170;7.538;2023-04-16T12:13:17;14.60;;;8.45;;
56419;SDS011;42323;52.170;7.538;2023-04-16T12:15:45;11.18;;;8.15;;
56419;SDS011;42323;52.170;7.538;2023-04-16T12:18:13;13.95;;;8.77;;
56419;SDS011;42323;52.170;7.538;2023-04-16T12:20:43;14.07;;;8.93;;
56419;SDS011;42323;52.170;7.538;2023-04-16T12:23:25;14.05;;;8.40;;
56419;SDS011;42323;52.170;7.538;2023-04-16T12:25:53;13.90;;;8.50;;
56419;SDS011;42323;52.170;7.538;2023-04-16T12:28:30;14.38;;;9.40;;
56419;SDS011;42323;52.170;7.538;2023-04-16T12:30:58;14.60;;;8.68;;
56419;SDS011;42323;52.170;7.538;2023-04-16T12:33:26;12.30;;;8.65;;
56419;SDS011;42323;52.170;7.538;2023-04-16T12:35:53;12.55;;;8.13;;
56419;SDS011;42323;52.170;7.538;2023-04-16T12:38:20;12.88;;;8.45;;
56419;SDS011;42323;52.170;7.538;2023-04-16T12:40:49;12.38;;;8.30;;
56419;SDS011;42323;52.170;7.538;2023-04-16T12:43:16;13.48;;;8.63;;
56419;SDS011;42323;52.170;7.538;2023-04-16T12:45:43;12.07;;;8.55;;
56419;SDS011;42323;52.170;7.538;2023-04-16T12:48:09;12.38;;;7.85;;
56419;SDS011;42323;52.170;7.538;2023-04-16T12:50:36;11.63;;;8.02;;
56419;SDS011;42323;52.170;7.538;2023-04-16T12:53:04;11.63;;;7.63;;
56419;SDS011;42323;52.170;7.538;2023-04-16T12:55:31;11.98;;;7.97;;
56419;SDS011;42323;52.170;7.538;2023-04-16T12:57:58;13.50;;;8.30;;
56419;SDS011;42323;52.170;7.538;2023-04-16T13:00:24;12.23;;;8.23;;
56419;SDS011;42323;52.170;7.538;2023-04-16T13:02:50;10.68;;;6.70;;
56419;SDS011;42323;52.170;7.538;2023-04-16T13:05:17;12.45;;;8.15;;
56419;SDS011;42323;52.170;7.538;2023-04-16T13:07:44;10.82;;;7.60;;
56419;SDS011;42323;52.170;7.538;2023-04-16T13:10:11;12.32;;;7.70;;
56419;SDS011;42323;52.170;7.538;2023-04-16T13:12:38;12.32;;;7.68;;
56419;SDS011;42323;52.170;7.538;2023-04-16T13:15:05;11.43;;;7.53;;
56419;SDS011;42323;52.170;7.538;2023-04-16T13:17:32;14.30;;;8.25;;
56419;SDS011;42323;52.170;7.538;2023-04-16T13:19:58;9.75;;;7.47;;
56419;SDS011;42323;52.170;7.538;2023-04-16T13:22:25;12.73;;;8.27;;
56419;SDS011;42323;52.170;7.538;2023-04-16T13:24:51;11.05;;;7.70;;
56419;SDS011;42323;52.170;7.538;2023-04-16T13:27:18;11.07;;;7.82;;
56419;SDS011;42323;52.170;7.538;2023-04-16T13:29:45;10.98;;;7.78;;
56419;SDS011;42323;52.170;7.538;2023-04-16T13:32:12;10.15;;;7.10;;
56419;SDS011;42323;52.170;7.538;2023-04-16T13:34:39;10.65;;;7.78;;
56419;SDS011;42323;52.170;7.538;2023-04-16T13:37:06;12.18;;;7.47;;
56419;SDS011;42323;52.170;7.538;2023-04-16T13:39:32;10.23;;;6.97;;
56419;SDS011;42323;52.170;7.538;2023-04-16T13:41:59;10.55;;;7.18;;
56419;SDS011;42323;52.170;7.538;2023-04-16T13:44:25;11.93;;;7.57;;
56419;SDS011;42323;52.170;7.538;2023-04-16T13:46:52;10.65;;;7.38;;
56419;SDS011;42323;52.170;7.538;2023-04-16T13:49:18;9.65;;;6.60;;
56419;SDS011;42323;52.170;7.538;2023-04-16T13:51:45;9.07;;;6.22;;
56419;SDS011;42323;52.170;7.538;2023-04-16T13:54:11;9.48;;;6.70;;
56419;SDS011;42323;52.170;7.538;2023-04-16T13:56:38;11.77;;;6.55;;
56419;SDS011;42323;52.170;7.538;2023-04-16T13:59:05;10.38;;;6.78;;
56419;SDS011;42323;52.170;7.538;2023-04-16T14:01:33;9.32;;;6.50;;
56419;SDS011;42323;52.170;7.538;2023-04-16T14:03:59;12.23;;;7.18;;
56419;SDS011;42323;52.170;7.538;2023-04-16T14:06:32;12.70;;;7.25;;
56419;SDS011;42323;52.170;7.538;2023-04-16T14:08:59;10.95;;;7.03;;
56419;SDS011;42323;52.170;7.538;2023-04-16T14:11:26;10.25;;;7.05;;
56419;SDS011;42323;52.170;7.538;2023-04-16T14:13:52;9.73;;;6.30;;
56419;SDS011;42323;52.170;7.538;2023-04-16T14:16:19;10.55;;;6.90;;
56419;SDS011;42323;52.170;7.538;2023-04-16T14:18:46;10.35;;;6.78;;
56419;SDS011;42323;52.170;7.538;2023-04-16T14:21:13;9.75;;;6.10;;
56419;SDS011;42323;52.170;7.538;2023-04-16T14:23:39;10.52;;;6.72;;
56419;SDS011;42323;52.170;7.538;2023-04-16T14:26:06;9.82;;;6.60;;
56419;SDS011;42323;52.170;7.538;2023-04-16T14:28:32;9.40;;;6.72;;
56419;SDS011;42323;52.170;7.538;2023-04-16T14:31:00;10.20;;;6.45;;
56419;SDS011;42323;52.170;7.538;2023-04-16T14:33:27;9.30;;;6.82;;
56419;SDS011;42323;52.170;7.538;2023-04-16T14:35:53;10.10;;;7.20;;
56419;SDS011;42323;52.170;7.538;2023-04-16T14:38:20;11.95;;;7.25;;
56419;SDS011;42323;52.170;7.538;2023-04-16T14:40:47;9.70;;;7.13;;
56419;SDS011;42323;52.170;7.538;2023-04-16T14:43:13;9.43;;;6.90;;
56419;SDS011;42323;52.170;7.538;2023-04-16T14:45:40;10.05;;;6.55;;